Aviation Digital Data Service (ADDS)

Output produced by METARs form (1608 UTC 03 December 2021)
found at http://www.aviationweather.gov/metar/data/
 
METAR text: KLVK 031553Z 07004KT 1/4SM FG VV003 09/09 A3012 RMK AO2 SLP199 T00890089
Conditions at: KLVK (LIVERMORE , CA, US) observed 1553 UTC 03 December 2021
Temperature: 8.9°C (48°F)
Dewpoint: 8.9°C (48°F) [RH = 100%]
Pressure (altimeter): 30.12 inches Hg (1020.1 mb)
[Sea-level pressure: 1019.9 mb]
Winds: from the ENE (70 degrees) at 5 MPH (4 knots; 2.1 m/s)
Visibility: 0.25 miles (0.40 km)
Ceiling: indefinite ceiling with vertical visibility of 300 feet AGL
Clouds: obscured sky
Weather: FG  (fog)

METAR text: KLVK 031545Z 08004KT 1/4SM FG VV003 09/09 A3012 RMK AO2 T00890089
Conditions at: KLVK (LIVERMORE , CA, US) observed 1545 UTC 03 December 2021
Temperature: 8.9°C (48°F)
Dewpoint: 8.9°C (48°F) [RH = 100%]
Pressure (altimeter): 30.12 inches Hg (1020.1 mb)
Winds: from the E (80 degrees) at 5 MPH (4 knots; 2.1 m/s)
Visibility: 0.25 miles (0.40 km)
Ceiling: indefinite ceiling with vertical visibility of 300 feet AGL
Clouds: obscured sky
Weather: FG  (fog)

METAR text: KLVK 031453Z 08004KT 1/2SM FG VV002 08/08 A3012 RMK AO2 SLP199 T00830083 53008
Conditions at: KLVK (LIVERMORE , CA, US) observed 1453 UTC 03 December 2021
Temperature: 8.3°C (47°F)
Dewpoint: 8.3°C (47°F) [RH = 100%]
Pressure (altimeter): 30.12 inches Hg (1020.1 mb)
[Sea-level pressure: 1019.9 mb]
Winds: from the E (80 degrees) at 5 MPH (4 knots; 2.1 m/s)
Visibility: 0.50 miles (0.80 km)
Ceiling: indefinite ceiling with vertical visibility of 200 feet AGL
Clouds: obscured sky
Weather: FG  (fog)

METAR text: KLVK 031353Z AUTO 08004KT 1/4SM FG VV002 08/08 A3011 RMK AO2 SLP194 T00830083
Conditions at: KLVK (LIVERMORE , CA, US) observed 1353 UTC 03 December 2021
Temperature: 8.3°C (47°F)
Dewpoint: 8.3°C (47°F) [RH = 100%]
Pressure (altimeter): 30.11 inches Hg (1019.7 mb)
[Sea-level pressure: 1019.4 mb]
Winds: from the E (80 degrees) at 5 MPH (4 knots; 2.1 m/s)
Visibility: 0.25 miles (0.40 km)
Ceiling: indefinite ceiling with vertical visibility of 200 feet AGL
Clouds: obscured sky
Weather: FG  (fog)

METAR text: KLVK 031253Z AUTO 08003KT 1/4SM FG VV002 08/08 A3010 RMK AO2 SLP191 T00830083
Conditions at: KLVK (LIVERMORE , CA, US) observed 1253 UTC 03 December 2021
Temperature: 8.3°C (47°F)
Dewpoint: 8.3°C (47°F) [RH = 100%]
Pressure (altimeter): 30.10 inches Hg (1019.4 mb)
[Sea-level pressure: 1019.1 mb]
Winds: from the E (80 degrees) at 3 MPH (3 knots; 1.5 m/s)
Visibility: 0.25 miles (0.40 km)
Ceiling: indefinite ceiling with vertical visibility of 200 feet AGL
Clouds: obscured sky
Weather: FG  (fog)

METAR text: KLVK 031153Z AUTO 04003KT 1/4SM FG VV002 08/08 A3010 RMK AO2 SLP190 T00830083 10094 20056 50002
Conditions at: KLVK (LIVERMORE , CA, US) observed 1153 UTC 03 December 2021
Temperature: 8.3°C (47°F)
Dewpoint: 8.3°C (47°F) [RH = 100%]
Pressure (altimeter): 30.10 inches Hg (1019.4 mb)
[Sea-level pressure: 1019.0 mb]
Winds: from the NE (40 degrees) at 3 MPH (3 knots; 1.5 m/s)
Visibility: 0.25 miles (0.40 km)
Ceiling: indefinite ceiling with vertical visibility of 200 feet AGL
Clouds: obscured sky
Weather: FG  (fog)

METAR text: KLVK 031116Z AUTO 00000KT 1/4SM FG VV002 08/08 A3011 RMK AO2 T00780078
Conditions at: KLVK (LIVERMORE , CA, US) observed 1116 UTC 03 December 2021
Temperature: 7.8°C (46°F)
Dewpoint: 7.8°C (46°F) [RH = 100%]
Pressure (altimeter): 30.11 inches Hg (1019.7 mb)
Winds: calm
Visibility: 0.25 miles (0.40 km)
Ceiling: indefinite ceiling with vertical visibility of 200 feet AGL
Clouds: obscured sky
Weather: FG  (fog)

METAR text: KLVK 031107Z AUTO 09003KT M1/4SM FG VV002 08/08 A3011 RMK AO2 T00780078
Conditions at: KLVK (LIVERMORE , CA, US) observed 1107 UTC 03 December 2021
Temperature: 7.8°C (46°F)
Dewpoint: 7.8°C (46°F) [RH = 100%]
Pressure (altimeter): 30.11 inches Hg (1019.7 mb)
Winds: from the E (90 degrees) at 3 MPH (3 knots; 1.5 m/s)
Visibility: 0.25 miles (0.40 km)
Ceiling: indefinite ceiling with vertical visibility of 200 feet AGL
Clouds: obscured sky
Weather: FG  (fog)

METAR text: KLVK 031053Z AUTO 00000KT 1/4SM FG VV002 08/08 A3011 RMK AO2 SLP194 T00780078
Conditions at: KLVK (LIVERMORE , CA, US) observed 1053 UTC 03 December 2021
Temperature: 7.8°C (46°F)
Dewpoint: 7.8°C (46°F) [RH = 100%]
Pressure (altimeter): 30.11 inches Hg (1019.7 mb)
[Sea-level pressure: 1019.4 mb]
Winds: calm
Visibility: 0.25 miles (0.40 km)
Ceiling: indefinite ceiling with vertical visibility of 200 feet AGL
Clouds: obscured sky
Weather: FG  (fog)

METAR text: KLVK 031037Z AUTO 00000KT 1/4SM FG VV002 08/08 A3011 RMK AO2 T00780078
Conditions at: KLVK (LIVERMORE , CA, US) observed 1037 UTC 03 December 2021
Temperature: 7.8°C (46°F)
Dewpoint: 7.8°C (46°F) [RH = 100%]
Pressure (altimeter): 30.11 inches Hg (1019.7 mb)
Winds: calm
Visibility: 0.25 miles (0.40 km)
Ceiling: indefinite ceiling with vertical visibility of 200 feet AGL
Clouds: obscured sky
Weather: FG  (fog)

METAR text: KLVK 031010Z AUTO 00000KT M1/4SM FG VV001 07/07 A3011 RMK AO2 T00720072
Conditions at: KLVK (LIVERMORE , CA, US) observed 1010 UTC 03 December 2021
Temperature: 7.2°C (45°F)
Dewpoint: 7.2°C (45°F) [RH = 100%]
Pressure (altimeter): 30.11 inches Hg (1019.7 mb)
Winds: calm
Visibility: 0.25 miles (0.40 km)
Ceiling: indefinite ceiling with vertical visibility of 100 feet AGL
Clouds: obscured sky
Weather: FG  (fog)

METAR text: KLVK 030953Z AUTO 00000KT 1/4SM FG VV002 07/07 A3011 RMK AO2 SLP193 T00670067
Conditions at: KLVK (LIVERMORE , CA, US) observed 0953 UTC 03 December 2021
Temperature: 6.7°C (44°F)
Dewpoint: 6.7°C (44°F) [RH = 100%]
Pressure (altimeter): 30.11 inches Hg (1019.7 mb)
[Sea-level pressure: 1019.3 mb]
Winds: calm
Visibility: 0.25 miles (0.40 km)
Ceiling: indefinite ceiling with vertical visibility of 200 feet AGL
Clouds: obscured sky
Weather: FG  (fog)

METAR text: KLVK 030944Z AUTO 00000KT 1 3/4SM BR BKN002 06/06 A3010 RMK AO2 T00610061
Conditions at: KLVK (LIVERMORE , CA, US) observed 0944 UTC 03 December 2021
Temperature: 6.1°C (43°F)
Dewpoint: 6.1°C (43°F) [RH = 100%]
Pressure (altimeter): 30.10 inches Hg (1019.4 mb)
Winds: calm
Visibility: 1.75 miles (2.82 km)
Ceiling: 200 feet AGL
Clouds: broken clouds at 200 feet AGL
Weather: BR  (mist)

METAR text: KLVK 030935Z AUTO 00000KT 2SM BR SCT004 06/06 A3010 RMK AO2 T00610056
Conditions at: KLVK (LIVERMORE , CA, US) observed 0935 UTC 03 December 2021
Temperature: 6.1°C (43°F)
Dewpoint: 5.6°C (42°F) [RH = 97%]
Pressure (altimeter): 30.10 inches Hg (1019.4 mb)
Winds: calm
Visibility: 2.00 miles (3.22 km)
Ceiling: at least 12,000 feet AGL
Clouds: scattered clouds at 400 feet AGL
Weather: BR  (mist)

METAR text: KLVK 030853Z AUTO 09003KT 3SM BR CLR 06/06 A3009 RMK AO2 SLP189 T00610056 58003
Conditions at: KLVK (LIVERMORE , CA, US) observed 0853 UTC 03 December 2021
Temperature: 6.1°C (43°F)
Dewpoint: 5.6°C (42°F) [RH = 97%]
Pressure (altimeter): 30.09 inches Hg (1019.0 mb)
[Sea-level pressure: 1018.9 mb]
Winds: from the E (90 degrees) at 3 MPH (3 knots; 1.5 m/s)
Visibility: 3 miles ( 5 km)
Ceiling: at least 12,000 feet AGL
Clouds: sky clear below 12,000 feet AGL
Weather: BR  (mist)

Forecast for: KLVK (LIVERMORE , CA, US)
Text: KLVK 031607Z 0316/0412 VRB03KT 1/2SM FG OVC002
Forecast period: 1600 to 1800 UTC 03 December 2021
Forecast type: FROM: standard forecast or significant change
Winds: variable direction winds at 3 MPH (3 knots; 1.5 m/s)
Visibility: 0.50 miles (0.80 km)
Ceiling: 200 feet AGL
Clouds: overcast cloud deck at 200 feet AGL
Weather: FG  (fog)
Text: TEMPO 0316/0317 1/4SM FG
Forecast period: 1600 to 1700 UTC 03 December 2021
Forecast type: TEMPORARY: The following changes expected for less than half the time period
Visibility: 0.25 miles (0.40 km)
Ceiling: unknown
Clouds: missing
Weather: FG  (fog)
Text: FM031800 VRB03KT 6SM HZ SCT003
Forecast period: 1800 to 2100 UTC 03 December 2021
Forecast type: FROM: standard forecast or significant change
Winds: variable direction winds at 3 MPH (3 knots; 1.5 m/s)
Visibility: 6 miles (10 km)
Ceiling: at least 12,000 feet AGL
Clouds: scattered clouds at 300 feet AGL
Weather: HZ  (haze)
Text: FM032100 07007KT 6SM HZ SKC
Forecast period: 2100 UTC 03 December 2021 to 0400 UTC 04 December 2021
Forecast type: FROM: standard forecast or significant change
Winds: from the ENE (70 degrees) at 8 MPH (7 knots; 3.6 m/s)
Visibility: 6 miles (10 km)
Clouds: clear skies
Weather: HZ  (haze)
Text: FM040400 VRB03KT 5SM BR FEW200
Forecast period: 0400 to 0600 UTC 04 December 2021
Forecast type: FROM: standard forecast or significant change
Winds: variable direction winds at 3 MPH (3 knots; 1.5 m/s)
Visibility: 5 miles (8 km)
Ceiling: at least 12,000 feet AGL
Clouds: few clouds at 20000 feet AGL
Weather: BR  (mist)
Text: FM040600 VRB03KT 1SM BR OVC003
Forecast period: 0600 to 1200 UTC 04 December 2021
Forecast type: FROM: standard forecast or significant change
Winds: variable direction winds at 3 MPH (3 knots; 1.5 m/s)
Visibility: 1.00 miles (1.61 km)
Ceiling: 300 feet AGL
Clouds: overcast cloud deck at 300 feet AGL
Weather: BR  (mist)